Time;durP1;ratioP1;P1;durP2;ratioP2;P2;SDS_P1;SDS_P2;PMS_P1;PMS_P2;Temp;Humidity;BMP_temperature;BMP_pressure;BME280_temperature;BME280_humidity;BME280_pressure;Samples;Min_cycle;Max_cycle;Signal;HPM_P1;HPM_P2
2021/11/23 00:00:10;;;;;;;8.30;7.37;;;2.30;99.90;;;;;;5033872;28;20457;-66
2021/11/23 00:02:37;;;;;;;7.50;6.80;;;2.30;99.90;;;;;;5033064;28;20481;-67
2021/11/23 00:05:04;;;;;;;8.93;7.13;;;2.30;99.90;;;;;;5033732;28;20439;-67
2021/11/23 00:07:29;;;;;;;10.47;7.40;;;2.20;99.90;;;;;;5032915;28;20425;-66
2021/11/23 00:09:55;;;;;;;11.30;6.40;;;2.20;99.90;;;;;;5031302;28;20437;-66
2021/11/23 00:12:20;;;;;;;8.53;7.00;;;2.20;99.90;;;;;;5031236;28;20668;-66
2021/11/23 00:14:46;;;;;;;8.37;7.00;;;2.10;99.90;;;;;;5033373;28;20544;-66
2021/11/23 00:17:11;;;;;;;7.63;6.80;;;2.00;99.90;;;;;;5032979;28;20183;-66
2021/11/23 00:19:37;;;;;;;7.60;6.90;;;2.00;99.90;;;;;;5033222;28;20197;-66
2021/11/23 00:22:03;;;;;;;7.17;6.57;;;2.00;99.90;;;;;;5033102;28;20280;-66
2021/11/23 00:24:29;;;;;;;8.17;7.40;;;2.00;99.90;;;;;;5031164;28;20635;-66
2021/11/23 00:26:54;;;;;;;9.60;7.80;;;1.90;99.90;;;;;;5032400;28;21006;-67
2021/11/23 00:29:20;;;;;;;8.83;7.23;;;1.80;99.90;;;;;;5032703;28;20190;-65
2021/11/23 00:31:45;;;;;;;10.40;7.13;;;1.80;99.90;;;;;;5032926;28;20182;-66
2021/11/23 00:34:11;;;;;;;7.10;6.40;;;1.80;99.90;;;;;;5033133;28;20343;-67
2021/11/23 00:36:36;;;;;;;8.57;7.60;;;1.90;99.90;;;;;;5032747;28;20190;-66
2021/11/23 00:39:02;;;;;;;9.27;8.30;;;1.90;99.90;;;;;;5032481;28;20259;-66
2021/11/23 00:41:28;;;;;;;7.63;6.87;;;1.80;99.90;;;;;;5032514;28;20181;-66
2021/11/23 00:43:53;;;;;;;8.70;7.70;;;1.80;99.90;;;;;;5032715;28;20966;-67
2021/11/23 00:46:19;;;;;;;10.70;8.17;;;1.80;99.90;;;;;;5032792;28;20180;-66
2021/11/23 00:48:44;;;;;;;10.83;8.20;;;1.80;99.90;;;;;;5032536;28;20181;-66
2021/11/23 00:51:10;;;;;;;9.00;6.80;;;1.60;99.90;;;;;;5031255;28;20566;-66
2021/11/23 00:53:36;;;;;;;8.87;7.60;;;1.60;99.90;;;;;;5032331;28;20202;-66
2021/11/23 00:56:04;;;;;;;9.77;7.40;;;1.50;99.90;;;;;;5032358;28;20174;-66
2021/11/23 00:58:30;;;;;;;10.30;7.70;;;1.50;99.90;;;;;;5032167;28;20463;-66
2021/11/23 01:00:55;;;;;;;10.83;8.43;;;1.50;99.90;;;;;;5032650;28;21002;-66
2021/11/23 01:03:21;;;;;;;9.23;7.57;;;1.40;99.90;;;;;;5018370;28;20457;-66
2021/11/23 01:05:47;;;;;;;8.60;7.60;;;1.40;99.90;;;;;;5027493;28;20212;-65
2021/11/23 01:08:14;;;;;;;8.10;7.40;;;1.40;99.90;;;;;;5020445;28;20539;-66
2021/11/23 01:10:40;;;;;;;10.27;8.10;;;1.40;99.90;;;;;;5027677;28;20174;-65
2021/11/23 01:13:05;;;;;;;8.37;7.00;;;1.30;99.90;;;;;;5030787;28;20503;-66
2021/11/23 01:15:31;;;;;;;9.50;8.13;;;1.20;99.90;;;;;;5032062;28;20449;-66
2021/11/23 01:17:57;;;;;;;9.23;8.00;;;1.10;99.90;;;;;;5023203;28;20178;-66
2021/11/23 01:20:23;;;;;;;11.93;9.00;;;1.10;99.90;;;;;;5022274;28;20211;-65
2021/11/23 01:22:49;;;;;;;9.40;8.07;;;1.10;99.90;;;;;;5028986;28;20679;-66
2021/11/23 01:25:15;;;;;;;10.23;7.80;;;1.10;99.90;;;;;;5026040;28;20428;-66
2021/11/23 01:27:40;;;;;;;8.20;7.40;;;1.10;99.90;;;;;;5031660;28;20787;-65
2021/11/23 01:30:08;;;;;;;9.60;8.40;;;1.20;99.90;;;;;;5027456;28;20248;-66
2021/11/23 01:32:34;;;;;;;9.93;8.90;;;1.20;99.90;;;;;;5022503;28;20577;-67
2021/11/23 01:35:00;;;;;;;21.30;9.00;;;1.20;99.90;;;;;;5025253;28;20440;-65
2021/11/23 01:37:25;;;;;;;8.87;8.00;;;1.30;99.90;;;;;;5023451;28;20179;-66
2021/11/23 01:39:51;;;;;;;8.10;7.30;;;1.30;99.90;;;;;;5029883;28;20610;-66
2021/11/23 01:42:18;;;;;;;10.73;8.10;;;1.30;99.90;;;;;;5030285;28;20228;-65
2021/11/23 01:44:43;;;;;;;9.33;8.27;;;1.30;99.90;;;;;;5031620;28;20178;-66
2021/11/23 01:47:09;;;;;;;9.47;8.60;;;1.30;99.90;;;;;;5026299;28;20435;-66
2021/11/23 01:49:34;;;;;;;13.60;8.73;;;1.20;99.90;;;;;;5029058;28;20232;-66
2021/11/23 01:52:00;;;;;;;9.93;7.70;;;1.20;99.90;;;;;;5016805;28;20262;-66
2021/11/23 01:54:25;;;;;;;8.60;7.70;;;1.20;99.90;;;;;;5021232;28;20222;-66
2021/11/23 01:56:51;;;;;;;10.10;8.33;;;1.10;99.90;;;;;;5030813;28;20178;-66
2021/11/23 01:59:17;;;;;;;9.37;8.47;;;1.10;99.90;;;;;;5023391;28;20191;-66
2021/11/23 02:01:42;;;;;;;10.03;9.03;;;1.10;99.90;;;;;;5020767;28;20185;-67
2021/11/23 02:04:08;;;;;;;8.70;7.47;;;1.10;99.90;;;;;;5034031;28;20225;-66
2021/11/23 02:06:34;;;;;;;12.30;8.00;;;1.10;99.90;;;;;;5035405;28;20170;-66
2021/11/23 02:09:00;;;;;;;8.37;7.50;;;1.00;99.90;;;;;;5037455;28;20259;-66
2021/11/23 02:11:25;;;;;;;10.10;8.00;;;1.00;99.90;;;;;;5029947;28;20730;-67
2021/11/23 02:13:51;;;;;;;10.90;8.60;;;1.00;99.90;;;;;;5037388;28;20212;-66
2021/11/23 02:16:17;;;;;;;11.90;8.77;;;1.00;99.90;;;;;;5028211;28;20178;-66
2021/11/23 02:18:43;;;;;;;10.13;8.27;;;1.00;99.90;;;;;;5037083;28;20452;-66
2021/11/23 02:21:08;;;;;;;9.33;8.43;;;1.00;99.90;;;;;;5023796;28;20679;-66
2021/11/23 02:23:35;;;;;;;10.80;9.40;;;0.90;99.90;;;;;;5035272;28;20240;-66
2021/11/23 02:26:01;;;;;;;12.33;10.43;;;0.90;99.90;;;;;;5035272;28;20162;-66
2021/11/23 02:28:27;;;;;;;9.73;8.73;;;0.90;99.90;;;;;;5035268;28;20428;-67
2021/11/23 02:30:57;;;;;;;9.33;7.50;;;0.90;99.90;;;;;;5036525;28;20544;-66
2021/11/23 02:33:25;;;;;;;11.40;8.10;;;1.00;99.90;;;;;;5036314;28;20194;-66
2021/11/23 02:35:56;;;;;;;10.60;8.33;;;0.90;99.90;;;;;;5032720;28;20433;-65
2021/11/23 02:38:23;;;;;;;11.13;9.90;;;0.90;99.90;;;;;;5033472;28;20478;-66
2021/11/23 02:40:49;;;;;;;10.27;8.93;;;0.80;99.90;;;;;;5037145;28;20464;-66
2021/11/23 02:43:16;;;;;;;10.70;9.07;;;0.80;99.90;;;;;;5030640;28;20491;-66
2021/11/23 02:45:41;;;;;;;8.57;7.70;;;0.80;99.90;;;;;;5026831;28;20468;-66
2021/11/23 02:48:09;;;;;;;9.90;8.90;;;0.80;99.90;;;;;;5036199;28;20471;-66
2021/11/23 02:50:36;;;;;;;11.20;8.87;;;0.80;99.90;;;;;;5033230;28;20181;-66
2021/11/23 02:53:02;;;;;;;10.90;8.00;;;0.80;99.90;;;;;;5036208;28;20480;-66
2021/11/23 02:55:33;;;;;;;8.47;7.63;;;0.80;99.90;;;;;;5030227;28;20969;-66
2021/11/23 02:58:00;;;;;;;9.60;8.40;;;0.70;99.90;;;;;;5027891;28;20640;-65
2021/11/23 03:00:28;;;;;;;9.20;8.30;;;0.60;99.90;;;;;;5032642;28;20471;-66
2021/11/23 03:02:54;;;;;;;9.77;8.67;;;0.60;99.90;;;;;;5037266;28;21040;-67
2021/11/23 03:05:22;;;;;;;10.00;9.00;;;0.60;99.90;;;;;;5034830;28;20797;-66
2021/11/23 03:07:50;;;;;;;8.53;7.73;;;0.60;99.90;;;;;;5029515;28;20425;-66
2021/11/23 03:10:17;;;;;;;12.83;9.33;;;0.60;99.90;;;;;;5037146;28;20523;-65
2021/11/23 03:12:47;;;;;;;8.03;7.00;;;0.60;99.90;;;;;;5033843;28;20831;-66
2021/11/23 03:15:12;;;;;;;9.03;8.23;;;0.60;99.90;;;;;;5030509;28;20472;-67
2021/11/23 03:17:38;;;;;;;9.70;8.63;;;0.60;99.90;;;;;;5033432;28;20464;-65
2021/11/23 03:20:06;;;;;;;9.33;8.10;;;0.60;99.90;;;;;;5033422;28;20209;-66
2021/11/23 03:22:32;;;;;;;9.33;7.90;;;0.60;99.90;;;;;;5031967;28;20562;-66
2021/11/23 03:24:58;;;;;;;8.30;7.47;;;0.60;99.90;;;;;;5032976;28;21017;-66
2021/11/23 03:27:24;;;;;;;11.80;8.17;;;0.60;99.90;;;;;;5031999;28;20174;-66
2021/11/23 03:29:50;;;;;;;11.70;8.87;;;0.60;99.90;;;;;;5025688;28;20804;-65
2021/11/23 03:32:15;;;;;;;10.40;9.40;;;0.60;99.90;;;;;;5032668;28;20264;-65
2021/11/23 03:34:42;;;;;;;10.23;9.23;;;0.50;99.90;;;;;;5032407;28;20265;-66
2021/11/23 03:37:16;;;;;;;10.57;9.47;;;0.50;99.90;;;;;;5032571;28;20674;-67
2021/11/23 03:39:42;;;;;;;10.10;8.60;;;0.50;99.90;;;;;;5018944;28;20453;-66
2021/11/23 03:42:08;;;;;;;10.33;7.90;;;0.40;99.90;;;;;;5032865;28;20530;-65
2021/11/23 03:44:35;;;;;;;11.00;8.60;;;0.40;99.90;;;;;;5031683;28;20594;-65
2021/11/23 03:47:04;;;;;;;9.27;7.93;;;0.40;99.90;;;;;;5032126;28;20433;-66
2021/11/23 03:49:30;;;;;;;11.00;9.00;;;0.40;99.90;;;;;;5032929;28;21021;-65
2021/11/23 03:51:55;;;;;;;10.00;8.97;;;0.40;99.90;;;;;;5028450;28;20521;-66
2021/11/23 03:54:22;;;;;;;9.83;8.80;;;0.30;99.90;;;;;;5014227;28;20190;-67
2021/11/23 03:56:48;;;;;;;10.47;9.37;;;0.30;99.90;;;;;;5033203;28;20190;-66
2021/11/23 03:59:14;;;;;;;10.00;7.90;;;0.30;99.90;;;;;;5022157;28;20527;-65
2021/11/23 04:01:41;;;;;;;14.80;9.40;;;0.30;99.90;;;;;;5027010;28;20678;-66
2021/11/23 04:04:06;;;;;;;11.03;9.00;;;0.30;99.90;;;;;;5029141;28;20433;-66
2021/11/23 04:06:32;;;;;;;12.20;10.90;;;0.20;99.90;;;;;;5032292;28;20808;-66
2021/11/23 04:08:58;;;;;;;11.27;9.30;;;0.10;99.90;;;;;;5020024;28;20187;-66
2021/11/23 04:11:23;;;;;;;13.03;9.70;;;0.10;99.90;;;;;;5030189;28;20205;-66
2021/11/23 04:13:49;;;;;;;13.60;9.83;;;0.10;99.90;;;;;;5033084;28;20202;-66
2021/11/23 04:16:16;;;;;;;9.97;8.70;;;0.00;99.90;;;;;;5031381;28;20186;-66
2021/11/23 04:18:43;;;;;;;10.50;8.60;;;0.00;99.90;;;;;;5032771;28;20197;-66
2021/11/23 04:21:08;;;;;;;11.67;9.27;;;0.00;99.90;;;;;;5033237;28;20460;-65
2021/11/23 04:23:35;;;;;;;12.20;10.00;;;0.00;99.90;;;;;;5031209;28;20480;-66
2021/11/23 04:26:01;;;;;;;9.37;8.37;;;0.00;99.90;;;;;;5032888;28;20189;-66
2021/11/23 04:28:27;;;;;;;10.03;9.00;;;0.00;99.90;;;;;;5029733;28;20744;-65
2021/11/23 04:30:53;;;;;;;17.43;10.20;;;0.00;99.90;;;;;;5032638;28;20433;-66
2021/11/23 04:33:18;;;;;;;9.47;8.53;;;0.10;99.90;;;;;;5033058;28;20939;-66
2021/11/23 04:35:44;;;;;;;11.00;9.60;;;0.00;99.90;;;;;;5031192;28;20210;-66
2021/11/23 04:38:10;;;;;;;12.10;9.63;;;0.00;99.90;;;;;;5030948;28;20686;-67
2021/11/23 04:40:37;;;;;;;10.17;8.77;;;0.00;99.90;;;;;;5032347;28;20256;-66
2021/11/23 04:43:05;;;;;;;10.27;9.10;;;0.00;99.90;;;;;;5032077;28;20552;-66
2021/11/23 04:45:33;;;;;;;11.30;10.10;;;0.00;99.90;;;;;;5023584;28;20433;-66
2021/11/23 04:47:59;;;;;;;16.50;9.27;;;0.00;99.90;;;;;;5014857;28;20441;-66
2021/11/23 04:50:25;;;;;;;10.50;9.40;;;0.00;99.90;;;;;;5031500;28;20437;-66
2021/11/23 04:52:51;;;;;;;9.93;8.70;;;0.00;99.90;;;;;;5028289;28;20536;-66
2021/11/23 04:55:16;;;;;;;10.23;9.20;;;0.00;99.90;;;;;;5021688;28;20432;-66
2021/11/23 04:57:42;;;;;;;11.53;8.50;;;-0.10;99.90;;;;;;5026987;28;20181;-66
2021/11/23 05:00:11;;;;;;;10.47;9.23;;;-0.10;99.90;;;;;;5016190;28;20207;-66
2021/11/23 05:02:37;;;;;;;12.33;9.37;;;0.00;99.90;;;;;;5028760;28;20277;-66
2021/11/23 05:05:03;;;;;;;14.77;9.47;;;0.00;99.90;;;;;;5031081;28;20520;-66
2021/11/23 05:07:28;;;;;;;13.97;10.50;;;-0.10;99.90;;;;;;5021863;28;20262;-66
2021/11/23 05:09:54;;;;;;;12.50;9.50;;;-0.10;99.90;;;;;;5027550;28;20987;-66
2021/11/23 05:12:20;;;;;;;13.17;10.60;;;-0.10;99.90;;;;;;5024328;28;20578;-66
2021/11/23 05:14:46;;;;;;;9.80;8.80;;;-0.20;99.90;;;;;;5027537;28;20261;-66
2021/11/23 05:17:12;;;;;;;14.37;9.23;;;-0.20;99.90;;;;;;5018336;28;20441;-66
2021/11/23 05:19:37;;;;;;;11.37;10.07;;;-0.20;99.90;;;;;;5031388;28;20223;-66
2021/11/23 05:22:04;;;;;;;13.40;9.23;;;-0.20;99.90;;;;;;5031990;28;20224;-66
2021/11/23 05:24:29;;;;;;;12.17;9.57;;;-0.20;99.90;;;;;;5035817;28;20273;-66
2021/11/23 05:26:55;;;;;;;10.60;9.13;;;-0.20;99.90;;;;;;5032138;28;21044;-66
2021/11/23 05:29:20;;;;;;;11.10;10.00;;;-0.20;99.90;;;;;;5028933;28;20186;-66
2021/11/23 05:31:46;;;;;;;11.57;9.20;;;-0.20;99.90;;;;;;5031250;28;20186;-66
2021/11/23 05:34:11;;;;;;;12.27;9.67;;;-0.20;99.90;;;;;;5031667;28;20181;-66
2021/11/23 05:36:37;;;;;;;11.63;10.23;;;-0.20;99.90;;;;;;5026375;28;20186;-66
2021/11/23 05:39:04;;;;;;;10.70;9.43;;;-0.30;99.90;;;;;;5027105;28;20206;-66
2021/11/23 05:41:30;;;;;;;11.13;9.60;;;-0.30;99.90;;;;;;5031944;28;20174;-66
2021/11/23 05:43:55;;;;;;;10.13;9.13;;;-0.40;99.90;;;;;;5031423;28;20471;-66
2021/11/23 05:46:21;;;;;;;10.17;9.10;;;-0.40;99.90;;;;;;5031691;28;20185;-66
2021/11/23 05:48:47;;;;;;;11.60;10.13;;;-0.40;99.90;;;;;;5030717;28;20174;-66
2021/11/23 05:51:12;;;;;;;10.93;9.70;;;-0.40;99.90;;;;;;5031383;28;20588;-66
2021/11/23 05:53:39;;;;;;;13.23;10.80;;;-0.40;99.90;;;;;;5028928;28;20212;-66
2021/11/23 05:56:06;;;;;;;11.03;9.93;;;-0.40;99.90;;;;;;5023604;28;20433;-66
2021/11/23 05:58:31;;;;;;;12.97;11.33;;;-0.40;99.90;;;;;;5031042;28;20523;-66
2021/11/23 06:00:57;;;;;;;12.30;11.00;;;-0.40;99.90;;;;;;5030809;28;20476;-66
2021/11/23 06:03:23;;;;;;;12.50;11.20;;;-0.40;99.90;;;;;;5030927;28;20668;-66
2021/11/23 06:05:49;;;;;;;14.67;11.10;;;-0.40;99.90;;;;;;5031706;28;20213;-66
2021/11/23 06:08:14;;;;;;;12.33;10.43;;;-0.40;99.90;;;;;;5030485;28;20189;-66
2021/11/23 06:10:40;;;;;;;12.10;10.10;;;-0.40;99.90;;;;;;5031433;28;20182;-66
2021/11/23 06:13:07;;;;;;;14.73;11.20;;;-0.50;99.90;;;;;;5031173;28;20543;-66
2021/11/23 06:15:32;;;;;;;13.70;11.30;;;-0.50;99.90;;;;;;5026155;28;20186;-66
2021/11/23 06:18:02;;;;;;;12.33;10.07;;;-0.50;99.90;;;;;;5031267;28;20498;-66
2021/11/23 06:20:31;;;;;;;16.70;10.97;;;-0.50;99.90;;;;;;5031176;28;20210;-66
2021/11/23 06:22:59;;;;;;;12.70;11.00;;;-0.50;99.90;;;;;;5029622;28;20977;-66
2021/11/23 06:25:26;;;;;;;14.13;11.60;;;-0.50;99.90;;;;;;5031132;28;20513;-66
2021/11/23 06:27:52;;;;;;;12.20;10.23;;;-0.50;99.90;;;;;;5030665;28;20428;-66
2021/11/23 06:30:18;;;;;;;12.97;10.20;;;-0.50;99.90;;;;;;5027904;28;20464;-65
2021/11/23 06:32:44;;;;;;;18.50;11.70;;;-0.50;99.90;;;;;;5029852;28;20452;-66
2021/11/23 06:35:09;;;;;;;21.90;15.30;;;-0.50;99.90;;;;;;5028635;28;20869;-66
2021/11/23 06:37:35;;;;;;;17.77;13.43;;;-0.50;99.90;;;;;;5028119;28;20193;-66
2021/11/23 06:40:01;;;;;;;14.20;12.30;;;-0.50;99.90;;;;;;5031349;28;20217;-66
2021/11/23 06:42:26;;;;;;;12.17;10.00;;;-0.60;99.90;;;;;;5028665;28;20209;-66
2021/11/23 06:44:52;;;;;;;16.47;11.67;;;-0.60;99.90;;;;;;5030293;28;20228;-66
2021/11/23 06:47:18;;;;;;;13.40;10.70;;;-0.50;99.90;;;;;;5030798;28;20240;-66
2021/11/23 06:49:44;;;;;;;16.50;11.10;;;-0.60;99.90;;;;;;5027165;28;20190;-66
2021/11/23 06:52:11;;;;;;;12.97;11.00;;;-0.60;99.90;;;;;;5033261;28;20212;-66
2021/11/23 06:54:37;;;;;;;14.50;10.20;;;-0.60;99.90;;;;;;5034596;28;20429;-66
2021/11/23 06:57:03;;;;;;;13.33;11.50;;;-0.50;99.90;;;;;;5033538;28;20460;-66
2021/11/23 06:59:29;;;;;;;15.00;11.60;;;-0.50;99.90;;;;;;5031082;28;20463;-66
2021/11/23 07:01:55;;;;;;;15.23;12.07;;;-0.40;99.90;;;;;;5034695;28;20437;-66
2021/11/23 07:04:20;;;;;;;17.47;13.40;;;-0.40;99.90;;;;;;5029284;28;20178;-66
2021/11/23 07:06:48;;;;;;;15.07;13.50;;;-0.40;99.90;;;;;;5034513;28;20170;-66
2021/11/23 07:09:14;;;;;;;15.07;12.37;;;-0.40;99.90;;;;;;5033759;28;20203;-66
2021/11/23 07:11:40;;;;;;;14.10;11.53;;;-0.40;99.90;;;;;;5033476;28;20433;-67
2021/11/23 07:14:07;;;;;;;18.73;15.17;;;-0.40;99.90;;;;;;5028210;28;20440;-66
2021/11/23 07:16:35;;;;;;;18.87;12.70;;;-0.30;99.90;;;;;;5023372;28;20432;-66
2021/11/23 07:19:02;;;;;;;15.13;11.70;;;-0.30;99.90;;;;;;5034126;28;20850;-66
2021/11/23 07:21:27;;;;;;;17.07;13.40;;;-0.30;99.90;;;;;;5033810;28;20440;-66
2021/11/23 07:23:53;;;;;;;14.83;12.20;;;-0.20;99.90;;;;;;5034300;28;20452;-66
2021/11/23 07:26:19;;;;;;;17.23;12.73;;;0.20;99.90;;;;;;5034381;28;20178;-66
2021/11/23 07:28:44;;;;;;;15.77;12.00;;;0.70;99.90;;;;;;5018103;28;20209;-66
2021/11/23 07:31:10;;;;;;;14.67;11.47;;;1.50;99.90;;;;;;5032728;28;20174;-66
2021/11/23 07:33:35;;;;;;;12.77;11.50;;;2.50;99.90;;;;;;5034013;28;20209;-67
2021/11/23 07:36:01;;;;;;;13.90;12.53;;;3.30;99.90;;;;;;5034076;28;20257;-66
2021/11/23 07:38:27;;;;;;;15.37;13.87;;;4.20;99.90;;;;;;5033807;28;20553;-66
2021/11/23 07:40:52;;;;;;;18.23;13.77;;;5.10;99.90;;;;;;5029738;28;20174;-66
2021/11/23 07:43:18;;;;;;;14.50;12.27;;;5.90;99.90;;;;;;5018519;28;20596;-66
2021/11/23 07:45:43;;;;;;;13.37;11.90;;;6.60;99.90;;;;;;5003859;28;20182;-67
2021/11/23 07:48:10;;;;;;;12.57;11.23;;;7.20;99.90;;;;;;5029444;28;20178;-66
2021/11/23 07:50:36;;;;;;;12.30;11.07;;;7.80;99.90;;;;;;5032445;28;20244;-66
2021/11/23 07:53:02;;;;;;;12.80;11.53;;;8.50;99.90;;;;;;5029745;28;20454;-67
2021/11/23 07:55:28;;;;;;;13.97;12.07;;;9.10;99.90;;;;;;5026882;28;20512;-67
2021/11/23 07:57:54;;;;;;;13.57;12.30;;;9.80;99.90;;;;;;5033548;28;20868;-67
2021/11/23 08:00:22;;;;;;;20.50;18.37;;;10.30;99.90;;;;;;5032716;28;20255;-67
2021/11/23 08:02:48;;;;;;;21.57;18.77;;;10.90;99.90;;;;;;5032512;28;20205;-67
2021/11/23 08:05:14;;;;;;;19.70;17.70;;;11.30;99.90;;;;;;5033437;28;20482;-67
2021/11/23 08:07:40;;;;;;;16.20;14.63;;;11.90;99.30;;;;;;5032548;28;20507;-67
2021/11/23 08:10:06;;;;;;;14.90;13.50;;;12.30;97.70;;;;;;5030804;28;20467;-67
2021/11/23 08:12:32;;;;;;;14.20;12.80;;;12.60;97.20;;;;;;5033187;28;20343;-67
2021/11/23 08:14:57;;;;;;;13.33;12.03;;;12.90;96.10;;;;;;5023218;28;20787;-67
2021/11/23 08:17:23;;;;;;;12.07;10.97;;;13.50;94.70;;;;;;5030752;28;20182;-67
2021/11/23 08:19:49;;;;;;;12.47;11.40;;;14.00;93.60;;;;;;5032872;28;20205;-66
2021/11/23 08:22:15;;;;;;;13.27;12.07;;;14.30;92.10;;;;;;5026336;28;20450;-67
2021/11/23 08:24:41;;;;;;;11.97;10.87;;;14.70;90.90;;;;;;5023923;28;20186;-68
2021/11/23 08:27:06;;;;;;;11.87;10.97;;;14.60;90.10;;;;;;5025829;28;21067;-68
2021/11/23 08:29:32;;;;;;;10.93;10.13;;;14.90;89.00;;;;;;5025633;28;20191;-67
2021/11/23 08:31:58;;;;;;;11.50;10.60;;;15.30;86.20;;;;;;5021730;28;20206;-69
2021/11/23 08:34:23;;;;;;;12.20;11.20;;;15.40;85.30;;;;;;5029726;28;20189;-68
2021/11/23 08:36:50;;;;;;;11.73;10.83;;;15.50;83.30;;;;;;5029284;28;20185;-66
2021/11/23 08:39:16;;;;;;;12.37;11.47;;;15.70;82.20;;;;;;5029519;28;20194;-67
2021/11/23 08:41:43;;;;;;;11.80;10.90;;;15.70;80.90;;;;;;5032077;28;20431;-66
2021/11/23 08:44:09;;;;;;;14.47;13.17;;;15.70;80.70;;;;;;5031890;28;20444;-66
2021/11/23 08:46:34;;;;;;;13.93;12.83;;;15.70;80.30;;;;;;5030069;28;20437;-66
2021/11/23 08:49:01;;;;;;;11.17;10.17;;;16.50;77.90;;;;;;5030964;28;20868;-66
2021/11/23 08:51:30;;;;;;;12.87;11.70;;;16.70;74.90;;;;;;5026487;28;20266;-66
2021/11/23 08:53:56;;;;;;;12.03;11.10;;;16.50;75.80;;;;;;5023878;28;20460;-66
2021/11/23 08:56:21;;;;;;;12.20;11.30;;;17.00;74.30;;;;;;5032116;28;20439;-66
2021/11/23 08:58:51;;;;;;;12.10;11.10;;;17.10;71.90;;;;;;5028914;28;20206;-66
2021/11/23 09:01:21;;;;;;;12.70;11.70;;;17.70;72.00;;;;;;5031778;28;20181;-66
2021/11/23 09:03:46;;;;;;;12.00;11.00;;;18.60;68.20;;;;;;5030836;28;20467;-66
2021/11/23 09:06:13;;;;;;;10.63;9.83;;;18.90;66.70;;;;;;5023011;28;20982;-66
2021/11/23 09:08:46;;;;;;;10.43;9.73;;;18.80;64.30;;;;;;5026256;28;20186;-67
2021/11/23 09:11:11;;;;;;;9.43;8.67;;;19.60;63.30;;;;;;5031961;28;20571;-67
2021/11/23 09:13:37;;;;;;;9.20;8.60;;;19.30;59.10;;;;;;5031115;28;20453;-67
2021/11/23 09:16:02;;;;;;;9.90;9.00;;;18.30;62.00;;;;;;5029424;28;20178;-67
2021/11/23 09:18:28;;;;;;;11.00;10.20;;;18.30;61.40;;;;;;5026930;28;20228;-66
2021/11/23 09:20:53;;;;;;;10.90;9.83;;;16.90;62.00;;;;;;5031861;28;20170;-67
2021/11/23 09:23:19;;;;;;;9.90;9.00;;;16.60;63.40;;;;;;5028351;28;20566;-67
2021/11/23 09:25:45;;;;;;;12.37;11.13;;;16.70;63.70;;;;;;5023868;28;20194;-67
2021/11/23 09:28:11;;;;;;;11.10;10.20;;;16.80;64.00;;;;;;5029779;28;20177;-67
2021/11/23 09:30:37;;;;;;;11.83;10.73;;;16.70;64.20;;;;;;5031620;28;20523;-67
2021/11/23 09:33:04;;;;;;;10.43;9.73;;;17.90;61.40;;;;;;5030298;28;20567;-67
2021/11/23 09:35:30;;;;;;;11.00;9.70;;;18.40;59.80;;;;;;5030153;28;20516;-67
2021/11/23 09:37:57;;;;;;;10.27;9.53;;;17.30;59.70;;;;;;5031150;28;20515;-67
2021/11/23 09:40:23;;;;;;;9.77;9.07;;;17.70;60.60;;;;;;5029090;28;20197;-67
2021/11/23 09:42:50;;;;;;;11.70;10.70;;;18.90;59.80;;;;;;5030494;28;20507;-67
2021/11/23 09:45:17;;;;;;;11.33;10.47;;;19.90;57.70;;;;;;5027535;28;20468;-67
2021/11/23 09:47:42;;;;;;;10.80;9.80;;;21.20;55.50;;;;;;5027797;28;20429;-67
2021/11/23 09:50:09;;;;;;;10.73;9.83;;;21.20;54.10;;;;;;5030703;28;20962;-67
2021/11/23 09:52:35;;;;;;;8.67;7.97;;;21.50;52.00;;;;;;5025811;28;20676;-67
2021/11/23 09:55:02;;;;;;;10.13;9.33;;;21.60;51.30;;;;;;5030303;28;20435;-67
2021/11/23 09:57:27;;;;;;;10.47;9.57;;;20.80;51.30;;;;;;5030960;28;20502;-67
2021/11/23 09:59:53;;;;;;;10.17;9.37;;;20.40;52.10;;;;;;5028908;28;20457;-67
2021/11/23 10:02:28;;;;;;;9.90;9.20;;;20.60;51.10;;;;;;5026082;28;20194;-67
2021/11/23 10:05:14;;;;;;;9.70;8.90;;;20.40;51.40;;;;;;5029459;28;20650;-67
2021/11/23 10:07:42;;;;;;;8.97;8.37;;;20.70;51.20;;;;;;5029859;28;20823;-67
2021/11/23 10:10:19;;;;;;;8.50;7.80;;;21.80;50.20;;;;;;5030732;28;20508;-67
2021/11/23 10:12:56;;;;;;;11.13;10.03;;;22.50;48.60;;;;;;5030432;28;21016;-67
2021/11/23 10:15:30;;;;;;;9.00;8.20;;;23.10;47.30;;;;;;5029087;28;20515;-67
2021/11/23 10:18:09;;;;;;;9.60;8.90;;;23.00;46.80;;;;;;5024875;28;20428;-67
2021/11/23 10:20:41;;;;;;;9.10;8.20;;;23.80;45.50;;;;;;5029218;28;20468;-67
2021/11/23 10:23:23;;;;;;;9.23;8.33;;;23.40;46.00;;;;;;5030645;28;20453;-65
2021/11/23 10:25:55;;;;;;;9.03;8.30;;;22.90;45.00;;;;;;5021834;28;20440;-67
2021/11/23 10:28:24;;;;;;;7.87;7.23;;;22.70;45.50;;;;;;5018947;28;20475;-67
2021/11/23 10:30:50;;;;;;;8.97;8.37;;;23.40;44.30;;;;;;5027745;28;20934;-67
2021/11/23 10:33:17;;;;;;;10.50;8.37;;;22.90;44.10;;;;;;5032067;28;20444;-68
2021/11/23 10:35:44;;;;;;;9.37;8.60;;;23.10;44.20;;;;;;5033036;28;20174;-67
2021/11/23 10:38:11;;;;;;;8.03;7.33;;;23.60;44.00;;;;;;5033795;28;20776;-67
2021/11/23 10:40:39;;;;;;;9.33;8.63;;;24.60;42.70;;;;;;5034499;28;20547;-67
2021/11/23 10:43:10;;;;;;;7.37;6.77;;;25.80;40.90;;;;;;5034295;28;20496;-67
2021/11/23 10:45:43;;;;;;;7.30;6.80;;;25.90;39.30;;;;;;5032227;28;20429;-65
2021/11/23 10:48:11;;;;;;;7.37;6.77;;;26.20;38.90;;;;;;5034567;28;20429;-65
2021/11/23 10:50:38;;;;;;;7.33;6.83;;;25.40;39.80;;;;;;5029570;28;20432;-65
2021/11/23 10:53:12;;;;;;;5.90;5.50;;;24.90;39.60;;;;;;5027030;28;20479;-67
2021/11/23 10:55:41;;;;;;;8.47;6.50;;;23.40;39.60;;;;;;5034476;28;20420;-67
2021/11/23 10:58:08;;;;;;;5.90;5.50;;;23.10;39.90;;;;;;5032884;28;20795;-67
2021/11/23 11:00:38;;;;;;;5.60;5.13;;;22.70;40.70;;;;;;5027433;28;20460;-67
2021/11/23 11:03:05;;;;;;;6.37;5.97;;;22.20;41.10;;;;;;5033727;28;20862;-67
2021/11/23 11:05:41;;;;;;;6.60;6.10;;;21.80;41.80;;;;;;5033993;28;20435;-67
2021/11/23 11:08:08;;;;;;;6.63;6.10;;;21.90;41.60;;;;;;5033117;28;20452;-67
2021/11/23 11:10:36;;;;;;;7.00;6.40;;;22.60;41.70;;;;;;5033903;28;20844;-67
2021/11/23 11:13:04;;;;;;;7.23;6.53;;;23.60;40.40;;;;;;5033211;28;20821;-67
2021/11/23 11:15:36;;;;;;;5.70;5.30;;;23.20;41.50;;;;;;5033659;28;20463;-67
2021/11/23 11:18:07;;;;;;;6.67;6.07;;;22.70;42.00;;;;;;5031342;28;20425;-65
2021/11/23 11:20:37;;;;;;;7.90;7.10;;;23.00;41.50;;;;;;5031364;28;20491;-65
2021/11/23 11:23:05;;;;;;;6.90;6.40;;;23.90;41.40;;;;;;5031242;28;20452;-67
2021/11/23 11:25:55;;;;;;;7.50;6.90;;;24.30;39.60;;;;;;5022439;28;20796;-68
2021/11/23 11:28:42;;;;;;;7.10;6.50;;;25.50;39.30;;;;;;5024175;28;20437;-67
2021/11/23 11:31:08;;;;;;;7.77;6.70;;;25.60;37.90;;;;;;5030625;28;20464;-67
2021/11/23 11:33:35;;;;;;;6.80;6.30;;;24.60;38.80;;;;;;5032619;28;20452;-64
2021/11/23 11:36:01;;;;;;;7.30;6.70;;;24.70;38.00;;;;;;5032752;28;20571;-65
2021/11/23 11:38:27;;;;;;;8.00;7.33;;;25.60;37.60;;;;;;5032785;28;20547;-65
2021/11/23 11:41:04;;;;;;;7.63;7.00;;;25.70;37.30;;;;;;5031587;28;21108;-65
2021/11/23 11:43:37;;;;;;;8.13;7.50;;;26.40;37.30;;;;;;5031697;28;20213;-65
2021/11/23 11:46:04;;;;;;;7.90;7.20;;;26.20;36.90;;;;;;5032727;28;20455;-65
2021/11/23 11:48:45;;;;;;;7.60;7.00;;;27.20;36.00;;;;;;5031908;28;20436;-66
2021/11/23 11:51:29;;;;;;;8.90;7.40;;;28.00;35.80;;;;;;5031996;28;20436;-66
2021/11/23 11:53:58;;;;;;;8.17;7.40;;;28.60;34.80;;;;;;5023677;28;20448;-66
2021/11/23 11:56:39;;;;;;;8.50;7.10;;;28.40;34.80;;;;;;5014282;28;20504;-66
2021/11/23 11:59:16;;;;;;;7.57;6.97;;;28.40;33.90;;;;;;5029509;28;20831;-65
2021/11/23 12:01:49;;;;;;;7.63;6.93;;;28.40;33.80;;;;;;5027372;28;20432;-66
2021/11/23 12:04:17;;;;;;;7.63;7.03;;;27.00;34.60;;;;;;5031269;28;20443;-66
2021/11/23 12:07:09;;;;;;;6.90;6.30;;;27.70;34.40;;;;;;5032784;28;20428;-66
2021/11/23 12:09:41;;;;;;;7.70;7.00;;;27.80;33.40;;;;;;5023651;28;20877;-65
2021/11/23 12:12:10;;;;;;;6.70;6.20;;;28.80;33.60;;;;;;5022811;28;20491;-65
2021/11/23 12:15:08;;;;;;;7.40;6.80;;;29.30;32.90;;;;;;5027950;28;20438;-65
2021/11/23 12:17:58;;;;;;;7.37;6.70;;;29.20;32.30;;;;;;5025616;28;20446;-65
2021/11/23 12:20:59;;;;;;;7.70;7.13;;;30.30;31.80;;;;;;5025838;28;20460;-65
2021/11/23 12:23:45;;;;;;;7.73;7.10;;;30.40;31.10;;;;;;5020194;28;21055;-65
2021/11/23 12:26:19;;;;;;;8.00;7.30;;;30.60;30.80;;;;;;5020358;28;20440;-65
2021/11/23 12:28:54;;;;;;;7.33;6.83;;;30.60;30.80;;;;;;5028734;28;20435;-65
2021/11/23 12:31:20;;;;;;;8.50;7.70;;;29.50;30.60;;;;;;5024433;28;20424;-65
2021/11/23 12:33:49;;;;;;;8.23;7.43;;;28.80;31.10;;;;;;5029281;28;20476;-65
2021/11/23 12:36:18;;;;;;;7.07;5.47;;;28.90;31.10;;;;;;5021179;28;20929;-65
2021/11/23 12:38:45;;;;;;;6.00;5.60;;;28.90;31.30;;;;;;5028915;28;20436;-65
2021/11/23 12:41:17;;;;;;;5.83;5.43;;;29.00;30.60;;;;;;5027547;28;20485;-65
2021/11/23 12:43:44;;;;;;;6.17;5.70;;;28.90;31.30;;;;;;5028920;28;20477;-66